South Zanesville, Ohio
Current Conditions -  °F | °C
As of 3:53 AM on Friday 31 Oct 2014 (Local Time) from KZZV Reporting Station
Overcast Overcast  
Wind Chill: 42°   Ceiling: 4700
Heat Index: 42°   Visibility: 10mi
Dew Point: 37°   Wind: 3mph
Humidity: 82%   Direction: 140°SE
Pressure: 30"   Gusts: NA
Location:  39.9406°N, 82.0133°W
Report Text: KZZV 310753Z AUTO 14003KT 10SM OVC047 06/03 A3000 RMK AO2 SLP159 T00560028
Loading
Personal Weather Stations






























Interactive Weather Map
Tropical Storm Tracking
New forecast layout! Learn more

10-Day Weather Forecast

Advertisements
Track Severe Weather on mobile